createdAt,value
2019-01-18T00:00:35.376Z,87.13
2019-01-18T00:01:35.369Z,91.48
2019-01-18T00:02:35.366Z,86.94
2019-01-18T00:03:35.360Z,86.85
2019-01-18T00:04:35.376Z,90.91
2019-01-18T00:05:35.342Z,84.39
2019-01-18T00:06:35.337Z,90.91
2019-01-18T00:07:35.331Z,87.32
2019-01-18T00:08:35.324Z,84.58
2019-01-18T00:09:35.339Z,82.31
2019-01-18T00:10:35.305Z,83.53
2019-01-18T00:11:35.303Z,83.44
2019-01-18T00:12:35.286Z,80.32
2019-01-18T00:13:35.287Z,79.94
2019-01-18T00:14:35.308Z,87.13
2019-01-18T00:15:35.299Z,84.39
2019-01-18T00:16:35.263Z,78.42
2019-01-18T00:17:35.261Z,90.72
2019-01-18T00:18:35.246Z,87.23
2019-01-18T00:19:35.352Z,86.18
2019-01-18T00:20:35.257Z,89.21
2019-01-18T00:21:35.234Z,88.45
2019-01-18T00:22:35.218Z,84.67
2019-01-18T00:23:35.215Z,80.22
2019-01-18T00:24:35.238Z,83.44
2019-01-18T00:25:35.198Z,81.93
2019-01-18T00:26:35.188Z,85.42
2019-01-18T00:27:35.190Z,86.09
2019-01-18T00:28:35.179Z,86.09
2019-01-18T00:29:35.201Z,81.07
2019-01-18T00:30:35.167Z,88.93
2019-01-18T00:31:35.165Z,88.07
2019-01-18T00:32:35.149Z,82.50
2019-01-18T00:33:35.142Z,86.28
2019-01-18T00:34:35.164Z,81.07
2019-01-18T00:35:35.135Z,87.23
2019-01-18T00:36:35.126Z,86.56
2019-01-18T00:37:35.113Z,89.21
2019-01-18T00:38:35.113Z,88.36
2019-01-18T00:39:35.134Z,90.91
2019-01-18T00:40:35.125Z,87.23
2019-01-18T00:41:35.084Z,86.09
2019-01-18T00:42:35.081Z,84.29
2019-01-18T00:43:35.072Z,80.51
2019-01-18T00:44:35.063Z,81.36
2019-01-18T00:45:35.084Z,84.58
2019-01-18T00:46:35.060Z,78.33
2019-01-18T00:47:35.042Z,81.36
2019-01-18T00:48:35.036Z,87.41
2019-01-18T00:49:35.028Z,88.26
2019-01-18T00:50:35.051Z,81.26
2019-01-18T00:51:35.020Z,85.14
2019-01-18T00:52:35.013Z,91.29
2019-01-18T00:53:35.004Z,87.88
2019-01-18T00:54:35.001Z,85.61
2019-01-18T00:55:35.022Z,85.42
2019-01-18T00:56:34.980Z,90.91
2019-01-18T00:57:34.983Z,91.48
2019-01-18T00:58:34.968Z,90.44
2019-01-18T00:59:36.351Z,88.45
2019-01-18T01:00:34.984Z,83.72
2019-01-18T01:01:34.952Z,93.09
2019-01-18T01:02:34.939Z,88.17
2019-01-18T01:03:34.930Z,94.79
2019-01-18T01:04:34.928Z,86.18
2019-01-18T01:05:34.952Z,88.83
2019-01-18T01:06:34.924Z,89.50
2019-01-18T01:07:34.911Z,87.04
2019-01-18T01:08:34.894Z,89.78
2019-01-18T01:09:34.892Z,91.01
2019-01-18T01:10:34.955Z,93.28
2019-01-18T01:11:34.874Z,90.82
2019-01-18T01:12:34.866Z,87.13
2019-01-18T01:13:34.858Z,84.67
2019-01-18T01:14:34.858Z,84.58
2019-01-18T01:15:34.875Z,87.23
2019-01-18T01:16:34.843Z,87.41
2019-01-18T01:17:34.830Z,83.72
2019-01-18T01:18:34.831Z,82.68
2019-01-18T01:19:34.824Z,82.02
2019-01-18T01:20:34.845Z,80.13
2019-01-18T01:21:34.802Z,77.58
2019-01-18T01:22:34.802Z,79.09
2019-01-18T01:23:34.790Z,75.59
2019-01-18T01:24:34.789Z,73.32
2019-01-18T01:25:34.800Z,70.01
2019-01-18T01:26:34.764Z,72.37
2019-01-18T01:27:34.762Z,70.48
2019-01-18T01:28:34.753Z,69.63
2019-01-18T01:29:34.753Z,71.04
2019-01-18T01:30:34.767Z,73.41
2019-01-18T01:31:34.739Z,75.02
2019-01-18T01:32:34.730Z,75.21
2019-01-18T01:33:34.715Z,73.60
2019-01-18T01:34:34.710Z,75.68
2019-01-18T01:35:34.727Z,78.33
2019-01-18T01:36:34.697Z,84.39
2019-01-18T01:37:34.690Z,81.36
2019-01-18T01:38:34.680Z,88.83
2019-01-18T01:39:34.679Z,82.59
2019-01-18T01:40:34.697Z,86.47
2019-01-18T01:41:34.659Z,85.61
2019-01-18T01:42:34.653Z,85.42
2019-01-18T01:43:34.652Z,80.88
2019-01-18T01:44:34.640Z,81.07
2019-01-18T01:45:34.658Z,85.05
2019-01-18T01:46:34.620Z,78.80
2019-01-18T01:47:34.621Z,78.05
2019-01-18T01:48:34.605Z,79.94
2019-01-18T01:49:34.608Z,75.68
2019-01-18T01:50:34.624Z,79.94
2019-01-18T01:51:34.592Z,78.52
2019-01-18T01:52:34.589Z,79.56
2019-01-18T01:53:34.583Z,83.82
2019-01-18T01:54:34.570Z,83.63
2019-01-18T01:55:34.592Z,87.98
2019-01-18T01:56:34.557Z,89.21
2019-01-18T01:57:34.542Z,82.68
2019-01-18T01:58:34.541Z,86.94
2019-01-18T01:59:34.530Z,78.61
2019-01-18T02:00:34.552Z,81.45
2019-01-18T02:01:34.516Z,82.68
2019-01-18T02:02:34.510Z,83.44
2019-01-18T02:03:34.504Z,91.01
2019-01-18T02:04:34.494Z,94.13
2019-01-18T02:05:34.515Z,83.44
2019-01-18T02:06:34.479Z,87.98
2019-01-18T02:07:34.473Z,84.77
2019-01-18T02:08:34.471Z,89.31
2019-01-18T02:09:34.458Z,88.26
2019-01-18T02:10:34.482Z,93.09
2019-01-18T02:11:34.450Z,85.99
2019-01-18T02:12:34.441Z,87.23
2019-01-18T02:13:34.430Z,89.59
2019-01-18T02:14:34.421Z,94.51
2019-01-18T02:15:34.450Z,93.18
2019-01-18T02:16:34.408Z,94.23
2019-01-18T02:17:34.401Z,89.31
2019-01-18T02:18:34.392Z,93.94
2019-01-18T02:19:34.393Z,93.66
2019-01-18T02:20:34.412Z,92.24
2019-01-18T02:21:34.371Z,85.99
2019-01-18T02:22:34.370Z,91.58
2019-01-18T02:23:34.373Z,89.78
2019-01-18T02:24:34.357Z,82.50
2019-01-18T02:25:34.379Z,80.98
2019-01-18T02:26:34.335Z,84.48
2019-01-18T02:27:34.332Z,80.22
2019-01-18T02:28:34.322Z,80.04
2019-01-18T02:29:34.318Z,88.26
2019-01-18T02:30:34.333Z,87.98
2019-01-18T02:31:34.308Z,83.82
2019-01-18T02:32:34.299Z,83.34
2019-01-18T02:33:34.287Z,79.37
2019-01-18T02:34:34.282Z,84.01
2019-01-18T02:35:34.309Z,81.26
2019-01-18T02:36:34.271Z,81.45
2019-01-18T02:37:34.259Z,71.61
2019-01-18T02:38:34.255Z,67.07
2019-01-18T02:39:34.242Z,63.01
2019-01-18T02:40:34.272Z,64.71
2019-01-18T02:41:34.236Z,66.03
2019-01-18T02:42:34.223Z,64.80
2019-01-18T02:43:34.218Z,67.26
2019-01-18T02:44:34.211Z,66.69
2019-01-18T02:45:34.231Z,61.68
2019-01-18T02:46:34.196Z,62.44
2019-01-18T02:47:34.215Z,62.34
2019-01-18T02:48:34.182Z,68.02
2019-01-18T02:49:34.172Z,64.90
2019-01-18T02:50:34.175Z,65.09
2019-01-18T02:51:34.186Z,61.40
2019-01-18T02:52:34.159Z,66.79
2019-01-18T02:53:34.146Z,65.84
2019-01-18T02:54:34.138Z,68.21
2019-01-18T02:55:34.138Z,67.17
2019-01-18T02:56:34.158Z,64.14
2019-01-18T02:57:34.121Z,67.83
2019-01-18T02:58:34.109Z,70.48
2019-01-18T02:59:34.228Z,79.66
2019-01-18T03:00:34.093Z,76.91
2019-01-18T03:01:34.123Z,72.56
2019-01-18T03:02:34.082Z,71.52
2019-01-18T03:03:34.072Z,71.23
2019-01-18T03:04:34.071Z,68.30
2019-01-18T03:05:34.061Z,73.13
2019-01-18T03:06:34.082Z,71.61
2019-01-18T03:07:34.046Z,72.47
2019-01-18T03:08:34.038Z,74.83
2019-01-18T03:09:34.034Z,77.86
2019-01-18T03:10:34.022Z,73.32
2019-01-18T03:11:34.052Z,72.47
2019-01-18T03:12:34.038Z,71.23
2019-01-18T03:13:34.000Z,72.56
2019-01-18T03:14:33.999Z,71.80
2019-01-18T03:15:33.988Z,74.74
2019-01-18T03:16:33.981Z,72.56
2019-01-18T03:17:34.027Z,72.37
2019-01-18T03:18:33.978Z,79.94
2019-01-18T03:19:33.960Z,68.68
2019-01-18T03:20:33.959Z,70.10
2019-01-18T03:21:33.943Z,71.33
2019-01-18T03:22:33.969Z,75.07
2019-01-18T03:23:33.938Z,86.09
2019-01-18T03:24:33.927Z,84.86
2019-01-18T03:25:33.915Z,74.74
2019-01-18T03:26:33.915Z,77.10
2019-01-18T03:27:33.934Z,81.17
2019-01-18T03:28:33.901Z,74.17
2019-01-18T03:29:33.891Z,74.07
2019-01-18T03:30:33.903Z,69.63
2019-01-18T03:31:33.882Z,68.49
2019-01-18T03:32:33.897Z,65.84
2019-01-18T03:33:33.864Z,73.69
2019-01-18T03:34:33.851Z,62.72
2019-01-18T03:35:33.850Z,62.50
2019-01-18T03:36:33.854Z,60.14
2019-01-18T03:37:33.862Z,56.92
2019-01-18T03:38:33.844Z,52.38
2019-01-18T03:39:33.814Z,48.13
2019-01-18T03:40:33.804Z,48.60
2019-01-18T03:41:33.795Z,54.55
2019-01-18T03:42:33.793Z,53.89
2019-01-18T03:43:33.813Z,52.76
2019-01-18T03:44:33.776Z,49.92
2019-01-18T03:45:33.766Z,47.75
2019-01-18T03:46:33.765Z,48.60
2019-01-18T03:47:33.776Z,49.35
2019-01-18T03:48:33.744Z,47.18
2019-01-18T03:49:33.742Z,43.21
2019-01-18T03:50:33.735Z,43.96
2019-01-18T03:51:33.758Z,37.25
2019-01-18T03:52:33.743Z,36.78
2019-01-18T03:53:33.705Z,34.80
2019-01-18T03:54:33.704Z,38.39
2019-01-18T03:55:33.694Z,40.84
2019-01-18T03:56:33.686Z,48.50
2019-01-18T03:57:33.708Z,43.96
2019-01-18T03:58:33.672Z,44.15
2019-01-18T03:59:33.666Z,44.72
2019-01-18T04:00:33.674Z,42.74
2019-01-18T04:01:33.660Z,44.34
2019-01-18T04:02:33.670Z,40.09
2019-01-18T04:03:33.666Z,38.48
2019-01-18T04:04:33.630Z,40.66
2019-01-18T04:05:33.622Z,46.71
2019-01-18T04:06:33.614Z,46.33
2019-01-18T04:07:33.604Z,44.06
2019-01-18T04:08:33.625Z,45.57
2019-01-18T04:09:33.594Z,42.17
2019-01-18T04:10:33.607Z,36.78
2019-01-18T04:11:33.579Z,34.13
2019-01-18T04:12:33.568Z,34.13
2019-01-18T04:13:33.598Z,35.74
2019-01-18T04:14:33.561Z,34.23
2019-01-18T04:15:33.565Z,42.83
2019-01-18T04:16:33.546Z,40.56
2019-01-18T04:17:33.560Z,38.95
2019-01-18T04:18:33.527Z,44.25
2019-01-18T04:19:33.517Z,39.62
2019-01-18T04:20:33.507Z,44.25
2019-01-18T04:21:33.501Z,44.82
2019-01-18T04:22:33.520Z,41.13
2019-01-18T04:23:33.512Z,40.19
2019-01-18T04:24:33.478Z,41.03
2019-01-18T04:25:33.473Z,40.66
2019-01-18T04:26:33.464Z,40.47
2019-01-18T04:27:33.460Z,39.71
2019-01-18T04:28:33.476Z,52.86
2019-01-18T04:29:33.443Z,45.29
2019-01-18T04:30:33.867Z,48.13
2019-01-18T04:31:33.427Z,44.25
2019-01-18T04:32:33.443Z,43.96
2019-01-18T04:33:33.413Z,53.14
2019-01-18T04:34:33.405Z,53.70
2019-01-18T04:35:33.400Z,51.72
2019-01-18T04:36:33.386Z,57.77
2019-01-18T04:37:33.412Z,54.37
2019-01-18T04:38:33.405Z,50.49
2019-01-18T04:39:33.371Z,49.45
2019-01-18T04:40:33.365Z,47.85
2019-01-18T04:41:33.352Z,47.47
2019-01-18T04:42:33.349Z,44.63
2019-01-18T04:43:33.368Z,56.45
2019-01-18T04:44:33.368Z,60.14
2019-01-18T04:45:33.322Z,60.99
2019-01-18T04:46:33.316Z,52.48
2019-01-18T04:47:33.333Z,53.14
2019-01-18T04:48:33.302Z,51.34
2019-01-18T04:49:33.290Z,52.29
2019-01-18T04:50:33.291Z,56.73
2019-01-18T04:51:33.277Z,64.01
2019-01-18T04:52:33.299Z,65.34
2019-01-18T04:53:33.264Z,59.19
2019-01-18T04:54:33.260Z,62.31
2019-01-18T04:55:33.250Z,61.55
2019-01-18T04:56:33.241Z,62.88
2019-01-18T04:57:33.267Z,66.75
2019-01-18T04:58:33.224Z,73.47
2019-01-18T04:59:33.328Z,78.10
2019-01-18T05:00:40.137Z,75.36
2019-01-18T05:01:33.206Z,78.76
2019-01-18T05:02:33.225Z,81.98
2019-01-18T05:03:33.190Z,78.48
2019-01-18T05:04:33.195Z,79.43
2019-01-18T05:05:33.171Z,79.14
2019-01-18T05:06:33.167Z,78.01
2019-01-18T05:07:33.193Z,77.53
2019-01-18T05:08:33.156Z,75.83
2019-01-18T05:09:33.144Z,78.29
2019-01-18T05:10:33.136Z,82.07
2019-01-18T05:11:33.132Z,78.48
2019-01-18T05:12:33.150Z,79.61
2019-01-18T05:13:33.145Z,81.70
2019-01-18T05:14:33.108Z,78.29
2019-01-18T05:15:33.101Z,72.43
2019-01-18T05:16:33.094Z,77.06
2019-01-18T05:17:33.098Z,83.40
2019-01-18T05:18:33.108Z,74.60
2019-01-18T05:19:33.073Z,77.34
2019-01-18T05:20:33.067Z,76.97
2019-01-18T05:21:33.057Z,75.83
2019-01-18T05:22:33.056Z,76.87
2019-01-18T05:23:33.069Z,74.04
2019-01-18T05:24:33.037Z,73.09
2019-01-18T05:25:33.031Z,80.84
2019-01-18T05:26:33.020Z,79.80
2019-01-18T05:27:33.010Z,82.35
2019-01-18T05:28:33.036Z,79.52
2019-01-18T05:29:32.999Z,78.39
2019-01-18T05:30:32.988Z,77.53
2019-01-18T05:31:32.985Z,80.18
2019-01-18T05:32:32.974Z,81.98
2019-01-18T05:33:33.022Z,76.87
2019-01-18T05:34:32.989Z,78.95
2019-01-18T05:35:32.959Z,79.52
2019-01-18T05:36:32.949Z,77.25
2019-01-18T05:37:32.938Z,75.64
2019-01-18T05:38:32.939Z,74.22
2019-01-18T05:39:32.951Z,73.85
2019-01-18T05:40:32.916Z,72.43
2019-01-18T05:41:32.910Z,74.13
2019-01-18T05:42:32.914Z,72.62
2019-01-18T05:43:32.894Z,72.71
2019-01-18T05:44:32.913Z,69.78
2019-01-18T05:45:32.886Z,72.71
2019-01-18T05:46:32.874Z,72.71
2019-01-18T05:47:32.866Z,74.79
2019-01-18T05:48:32.863Z,76.50
2019-01-18T05:49:32.877Z,77.91
2019-01-18T05:50:32.840Z,78.01
2019-01-18T05:51:32.837Z,78.20
2019-01-18T05:52:32.829Z,74.22
2019-01-18T05:53:32.825Z,74.51
2019-01-18T05:54:32.814Z,64.67
2019-01-18T05:55:32.841Z,65.72
2019-01-18T05:56:32.799Z,68.36
2019-01-18T05:57:32.796Z,65.24
2019-01-18T05:58:32.784Z,58.81
2019-01-18T05:59:32.805Z,64.67
2019-01-18T06:00:32.770Z,68.36
2019-01-18T06:01:32.764Z,69.31
2019-01-18T06:02:32.754Z,72.90
2019-01-18T06:03:32.752Z,74.41
2019-01-18T06:04:32.765Z,70.82
2019-01-18T06:05:32.732Z,68.84
2019-01-18T06:06:32.730Z,73.56
2019-01-18T06:07:32.716Z,72.43
2019-01-18T06:08:32.707Z,65.24
2019-01-18T06:09:32.732Z,66.19
2019-01-18T06:10:32.696Z,68.93
2019-01-18T06:11:32.688Z,66.94
2019-01-18T06:12:32.731Z,73.85
2019-01-18T06:13:32.670Z,75.45
2019-01-18T06:14:32.690Z,75.74
2019-01-18T06:15:32.684Z,72.14
2019-01-18T06:16:32.651Z,77.63
2019-01-18T06:17:32.644Z,78.29
2019-01-18T06:18:32.635Z,74.13
2019-01-18T06:19:32.631Z,78.10
2019-01-18T06:20:32.646Z,79.43
2019-01-18T06:21:32.613Z,74.47
2019-01-18T06:22:32.602Z,77.02
2019-01-18T06:23:32.597Z,79.19
2019-01-18T06:24:32.586Z,74.95
2019-01-18T06:25:32.607Z,72.58
2019-01-18T06:26:32.571Z,77.02
2019-01-18T06:27:32.570Z,80.90
2019-01-18T06:28:32.563Z,84.68
2019-01-18T06:29:32.550Z,83.54
2019-01-18T06:30:32.571Z,84.20
2019-01-18T06:31:32.533Z,77.31
2019-01-18T06:32:32.525Z,81.37
2019-01-18T06:33:32.521Z,79.38
2019-01-18T06:34:32.516Z,77.87
2019-01-18T06:35:32.537Z,74.47
2019-01-18T06:36:32.498Z,79.67
2019-01-18T06:37:32.492Z,77.50
2019-01-18T06:38:32.483Z,79.00
2019-01-18T06:39:33.453Z,74.66
2019-01-18T06:40:32.494Z,85.05
2019-01-18T06:41:32.448Z,82.88
2019-01-18T06:42:32.449Z,87.89
2019-01-18T06:43:32.441Z,87.04
2019-01-18T06:44:32.432Z,87.13
2019-01-18T06:45:32.459Z,89.69
2019-01-18T06:46:32.444Z,89.59
2019-01-18T06:47:32.413Z,89.03
2019-01-18T06:48:32.404Z,85.34
2019-01-18T06:49:32.401Z,84.58
2019-01-18T06:50:32.389Z,87.13
2019-01-18T06:51:32.407Z,91.48
2019-01-18T06:52:32.371Z,84.49
2019-01-18T06:53:32.363Z,86.66
2019-01-18T06:54:32.355Z,87.32
2019-01-18T06:55:32.345Z,81.18
2019-01-18T06:56:32.562Z,81.93
2019-01-18T06:57:32.333Z,86.19
2019-01-18T06:58:32.322Z,87.98
2019-01-18T06:59:32.319Z,94.60
2019-01-18T07:00:32.345Z,93.75
2019-01-18T07:01:32.299Z,87.98
2019-01-18T07:02:32.321Z,84.86
2019-01-18T07:03:32.283Z,90.54
2019-01-18T07:04:32.277Z,91.10
2019-01-18T07:05:32.269Z,93.47
2019-01-18T07:06:32.289Z,90.91
2019-01-18T07:07:32.252Z,89.97
2019-01-18T07:08:32.249Z,90.82
2019-01-18T07:09:32.285Z,87.70
2019-01-18T07:10:32.721Z,89.12
2019-01-18T07:11:32.219Z,86.47
2019-01-18T07:12:32.241Z,84.49
2019-01-18T07:13:32.204Z,86.38
2019-01-18T07:14:32.196Z,92.33
2019-01-18T07:15:32.191Z,89.12
2019-01-18T07:16:32.178Z,96.02
2019-01-18T07:17:32.197Z,90.06
2019-01-18T07:18:32.161Z,89.12
2019-01-18T07:19:32.196Z,91.48
2019-01-18T07:20:32.145Z,93.09
2019-01-18T07:21:32.137Z,92.90
2019-01-18T07:22:32.157Z,94.13
2019-01-18T07:23:32.121Z,96.30
2019-01-18T07:24:32.117Z,99.99
2019-01-18T07:25:32.105Z,99.99
2019-01-18T07:26:32.097Z,95.07
2019-01-18T07:27:32.116Z,95.83
2019-01-18T07:28:32.088Z,94.60
2019-01-18T07:29:32.072Z,92.52
2019-01-18T07:30:32.098Z,91.67
2019-01-18T07:31:32.056Z,92.71
2019-01-18T07:32:32.050Z,99.99
2019-01-18T07:33:32.071Z,99.99
2019-01-18T07:34:32.032Z,98.38
2019-01-18T07:35:32.025Z,96.02
2019-01-18T07:36:32.019Z,95.54
2019-01-18T07:37:32.008Z,98.57
2019-01-18T07:38:32.031Z,93.66
2019-01-18T07:39:31.992Z,96.78
2019-01-18T07:40:31.983Z,94.89
2019-01-18T07:41:31.976Z,94.22
2019-01-18T07:42:31.967Z,94.70
2019-01-18T07:43:31.987Z,98.95
2019-01-18T07:44:31.960Z,99.99
2019-01-18T07:45:31.942Z,99.99
2019-01-18T07:46:31.942Z,99.99
2019-01-18T07:47:31.933Z,99.99
2019-01-18T07:48:31.956Z,99.99
2019-01-18T07:49:31.912Z,99.99
2019-01-18T07:50:31.903Z,99.99
2019-01-18T07:51:31.895Z,99.99
2019-01-18T07:52:31.886Z,99.99
2019-01-18T07:53:31.907Z,99.99
2019-01-18T07:54:31.873Z,99.99
2019-01-18T07:55:31.862Z,99.99
2019-01-18T07:56:31.855Z,99.99
2019-01-18T07:57:31.858Z,99.99
2019-01-18T07:58:31.879Z,99.99
2019-01-18T07:59:31.834Z,99.99
2019-01-18T08:00:31.829Z,99.99
2019-01-18T08:01:31.818Z,99.99
2019-01-18T08:02:31.812Z,99.99
2019-01-18T08:03:31.828Z,99.99
2019-01-18T08:04:31.795Z,99.99
2019-01-18T08:05:31.789Z,99.99
2019-01-18T08:06:31.777Z,99.99
2019-01-18T08:07:31.772Z,99.99
2019-01-18T08:08:31.801Z,99.99
2019-01-18T08:09:31.757Z,99.99
2019-01-18T08:10:31.749Z,99.99
2019-01-18T08:11:31.768Z,99.99
2019-01-18T08:12:31.732Z,99.99
2019-01-18T08:13:31.730Z,99.99
2019-01-18T08:14:31.744Z,99.99
2019-01-18T08:15:31.715Z,99.99
2019-01-18T08:16:31.732Z,99.99
2019-01-18T08:17:31.698Z,99.99
2019-01-18T08:18:31.698Z,99.99
2019-01-18T08:19:31.685Z,99.99
2019-01-18T08:20:31.709Z,99.99
2019-01-18T08:21:31.672Z,99.99
2019-01-18T08:22:31.674Z,99.99
2019-01-18T08:23:31.671Z,99.99
2019-01-18T08:24:31.662Z,99.99
2019-01-18T08:25:31.683Z,99.99
2019-01-18T08:26:31.649Z,99.99
2019-01-18T08:27:31.647Z,99.99
2019-01-18T08:28:31.643Z,99.99
2019-01-18T08:29:31.639Z,99.99
2019-01-18T08:30:31.664Z,99.99
2019-01-18T08:31:31.665Z,99.99
2019-01-18T08:32:31.631Z,99.99
2019-01-18T08:33:31.627Z,99.99
2019-01-18T08:34:31.632Z,99.99
2019-01-18T08:35:31.623Z,99.99
2019-01-18T08:36:31.651Z,99.99
2019-01-18T08:37:31.624Z,99.99
2019-01-18T08:38:31.619Z,99.99
2019-01-18T08:39:31.814Z,99.99
2019-01-18T08:40:31.619Z,99.99
2019-01-18T08:41:31.643Z,99.99
2019-01-18T08:42:31.614Z,99.99
2019-01-18T08:43:31.615Z,99.99
2019-01-18T08:44:31.614Z,99.99
2019-01-18T08:45:31.614Z,99.99
2019-01-18T08:46:31.637Z,99.99
2019-01-18T08:47:31.609Z,99.99
2019-01-18T08:48:31.609Z,99.99
2019-01-18T08:49:31.606Z,99.99
2019-01-18T08:50:31.612Z,99.99
2019-01-18T08:51:31.638Z,99.99
2019-01-18T08:52:31.641Z,99.99
2019-01-18T08:53:31.606Z,99.99
2019-01-18T08:54:31.633Z,99.99
2019-01-18T08:55:31.609Z,99.99
2019-01-18T08:56:31.606Z,99.99
2019-01-18T08:57:31.632Z,99.99
2019-01-18T08:58:31.609Z,99.99
2019-01-18T08:59:31.649Z,99.99
2019-01-18T09:00:31.601Z,99.99
2019-01-18T09:01:35.698Z,99.99
2019-01-18T09:02:31.629Z,99.99
2019-01-18T09:03:31.631Z,99.99
2019-01-18T09:04:31.601Z,99.99
2019-01-18T09:05:31.603Z,99.99
2019-01-18T09:06:31.602Z,99.99
2019-01-18T09:07:31.602Z,99.99
2019-01-18T09:08:31.631Z,99.99
2019-01-18T09:09:31.607Z,99.99
2019-01-18T09:10:31.607Z,99.99
2019-01-18T09:11:31.604Z,99.99
2019-01-18T09:12:31.604Z,99.99
2019-01-18T09:13:31.639Z,99.99
2019-01-18T09:14:31.604Z,99.99
2019-01-18T09:15:31.608Z,99.99
2019-01-18T09:16:31.609Z,99.99
2019-01-18T09:17:31.609Z,99.99
2019-01-18T09:18:32.717Z,99.99
2019-01-18T09:19:31.609Z,99.99
2019-01-18T09:20:31.617Z,99.99
2019-01-18T09:21:31.615Z,99.99
2019-01-18T09:22:31.616Z,99.99
2019-01-18T09:23:31.648Z,99.99
2019-01-18T09:24:31.624Z,99.99
2019-01-18T09:25:31.623Z,99.99
2019-01-18T09:26:31.626Z,99.99
2019-01-18T09:27:31.658Z,99.99
2019-01-18T09:28:31.654Z,99.99
2019-01-18T09:29:31.628Z,99.99
2019-01-18T09:30:31.626Z,99.99
2019-01-18T09:31:31.627Z,99.99
2019-01-18T09:32:31.631Z,99.99
2019-01-18T09:33:31.657Z,99.99
2019-01-18T09:34:31.636Z,99.99
2019-01-18T09:35:31.648Z,99.99
2019-01-18T09:36:31.638Z,99.99
2019-01-18T09:37:31.647Z,99.99
2019-01-18T09:38:31.669Z,99.99
2019-01-18T09:39:31.653Z,99.99
2019-01-18T09:40:31.649Z,99.99
2019-01-18T09:41:31.653Z,99.99
2019-01-18T09:42:31.655Z,99.99
2019-01-18T09:43:31.696Z,99.99
2019-01-18T09:44:31.665Z,99.99
2019-01-18T09:45:31.666Z,99.99
2019-01-18T09:46:31.681Z,99.99
2019-01-18T09:47:31.682Z,99.99
2019-01-18T09:48:31.708Z,99.99
2019-01-18T09:49:31.685Z,99.99
2019-01-18T09:50:31.702Z,99.99
2019-01-18T09:51:31.696Z,99.77
2019-01-18T09:52:31.700Z,99.99
2019-01-18T09:53:31.736Z,99.99
2019-01-18T09:54:31.713Z,99.99
2019-01-18T09:55:31.718Z,99.99
2019-01-18T09:56:31.724Z,99.99
2019-01-18T09:57:31.729Z,99.99
2019-01-18T09:58:31.763Z,99.99
2019-01-18T09:59:31.740Z,99.99
2019-01-18T10:00:31.739Z,99.99
2019-01-18T10:01:31.746Z,99.99
2019-01-18T10:02:31.753Z,99.99
2019-01-18T10:03:31.775Z,99.99
2019-01-18T10:04:31.752Z,99.99
2019-01-18T10:05:31.756Z,99.99
2019-01-18T10:06:31.762Z,99.99
2019-01-18T10:07:31.768Z,99.99
2019-01-18T10:08:31.795Z,99.99
2019-01-18T10:09:31.780Z,99.99
2019-01-18T10:10:31.778Z,99.99
2019-01-18T10:11:31.784Z,99.99
2019-01-18T10:12:31.788Z,99.99
2019-01-18T10:13:32.019Z,99.99
2019-01-18T10:14:31.803Z,99.99
2019-01-18T10:15:31.802Z,99.99
2019-01-18T10:16:31.805Z,99.99
2019-01-18T10:17:31.814Z,99.99
2019-01-18T10:18:31.846Z,99.99
2019-01-18T10:19:31.821Z,99.99
2019-01-18T10:20:31.825Z,99.99
2019-01-18T10:21:31.833Z,99.99
2019-01-18T10:22:31.837Z,99.99
2019-01-18T10:23:31.869Z,99.99
2019-01-18T10:24:31.849Z,99.58
2019-01-18T10:25:31.856Z,99.99
2019-01-18T10:26:31.863Z,98.07
2019-01-18T10:27:31.869Z,98.07
2019-01-18T10:28:31.900Z,99.21
2019-01-18T10:29:31.881Z,98.73
2019-01-18T10:30:31.890Z,97.97
2019-01-18T10:31:31.892Z,95.79
2019-01-18T10:32:31.900Z,97.07
2019-01-18T10:33:31.936Z,96.69
2019-01-18T10:34:31.916Z,95.46
2019-01-18T10:35:31.931Z,95.36
2019-01-18T10:36:31.929Z,96.22
2019-01-18T10:37:31.936Z,95.17
2019-01-18T10:38:31.977Z,94.79
2019-01-18T10:39:31.951Z,94.51
2019-01-18T10:40:31.960Z,96.12
2019-01-18T10:41:31.994Z,95.55
2019-01-18T10:42:31.976Z,95.75
2019-01-18T10:43:32.014Z,92.42
2019-01-18T10:44:31.996Z,91.23
2019-01-18T10:45:31.998Z,90.37
2019-01-18T10:46:32.011Z,89.80
2019-01-18T10:47:32.015Z,90.99
2019-01-18T10:48:32.051Z,91.52
2019-01-18T10:49:32.035Z,98.02
2019-01-18T10:50:32.043Z,99.99
2019-01-18T10:51:32.049Z,99.99
2019-01-18T10:52:32.056Z,99.99
2019-01-18T10:53:32.087Z,99.99
2019-01-18T10:54:32.067Z,99.99
2019-01-18T10:55:32.077Z,99.87
2019-01-18T10:56:32.077Z,95.84
2019-01-18T10:57:32.087Z,93.18
2019-01-18T10:58:32.118Z,93.37
2019-01-18T10:59:32.099Z,92.42
2019-01-18T11:00:32.104Z,95.27
2019-01-18T11:01:32.109Z,92.04
2019-01-18T11:02:32.151Z,91.09
2019-01-18T11:03:32.126Z,96.12
2019-01-18T11:04:32.134Z,92.51
2019-01-18T11:05:32.137Z,93.84
2019-01-18T11:06:32.151Z,92.42
2019-01-18T11:07:32.180Z,95.46
2019-01-18T11:08:32.190Z,94.79
2019-01-18T11:09:32.169Z,94.74
2019-01-18T11:10:32.182Z,94.46
2019-01-18T11:11:32.185Z,95.51
2019-01-18T11:12:32.220Z,99.82
2019-01-18T11:13:32.230Z,99.99
2019-01-18T11:14:32.211Z,99.99
2019-01-18T11:15:35.908Z,99.99
2019-01-18T11:16:32.220Z,99.99
2019-01-18T11:17:32.225Z,99.99
2019-01-18T11:18:32.255Z,99.20
2019-01-18T11:19:32.335Z,95.65
2019-01-18T11:20:32.243Z,94.13
2019-01-18T11:21:32.247Z,92.61
2019-01-18T11:22:32.280Z,93.80
2019-01-18T11:23:32.261Z,94.56
2019-01-18T11:24:32.265Z,90.80
2019-01-18T11:25:32.287Z,90.28
2019-01-18T11:26:32.275Z,91.24
2019-01-18T11:27:32.311Z,92.18
2019-01-18T11:28:32.294Z,92.94
2019-01-18T11:29:32.297Z,92.14
2019-01-18T11:30:32.299Z,93.18
2019-01-18T11:31:32.309Z,92.52
2019-01-18T11:32:32.339Z,96.03
2019-01-18T11:33:32.319Z,92.71
2019-01-18T11:34:32.331Z,95.98
2019-01-18T11:35:32.336Z,90.29
2019-01-18T11:36:32.342Z,90.19
2019-01-18T11:37:32.374Z,89.29
2019-01-18T11:38:32.355Z,90.05
2019-01-18T11:39:32.363Z,96.36
2019-01-18T11:40:32.372Z,99.99
2019-01-18T11:41:32.378Z,96.74
2019-01-18T11:42:32.446Z,94.23
2019-01-18T11:43:32.390Z,91.56
2019-01-18T11:44:32.429Z,91.09
2019-01-18T11:45:32.410Z,89.57
2019-01-18T11:46:32.416Z,91.19
2019-01-18T11:47:32.423Z,89.04
2019-01-18T11:48:32.455Z,88.28
2019-01-18T11:49:32.439Z,87.38
2019-01-18T11:50:32.445Z,86.82
2019-01-18T11:51:32.454Z,89.19
2019-01-18T11:52:32.463Z,90.14
2019-01-18T11:53:32.502Z,91.19
2019-01-18T11:54:32.477Z,88.81
2019-01-18T11:55:32.505Z,88.24
2019-01-18T11:56:32.495Z,89.24
2019-01-18T11:57:32.506Z,88.20
2019-01-18T11:58:32.542Z,87.05
2019-01-18T11:59:32.523Z,92.09
2019-01-18T12:00:37.813Z,94.93
2019-01-18T12:01:32.536Z,94.13
2019-01-18T12:02:32.543Z,91.75
2019-01-18T12:03:32.592Z,92.42
2019-01-18T12:04:32.560Z,90.52
2019-01-18T12:05:32.568Z,89.90
2019-01-18T12:06:32.587Z,87.81
2019-01-18T12:07:32.587Z,87.34
2019-01-18T12:08:32.621Z,88.57
2019-01-18T12:09:32.603Z,87.28
2019-01-18T12:10:32.614Z,88.42
2019-01-18T12:11:32.619Z,87.71
2019-01-18T12:12:32.623Z,88.85
2019-01-18T12:13:32.663Z,90.85
2019-01-18T12:14:32.643Z,89.23
2019-01-18T12:15:32.652Z,87.38
2019-01-18T12:16:32.661Z,89.14
2019-01-18T12:17:32.668Z,88.57
2019-01-18T12:18:32.702Z,90.23
2019-01-18T12:19:32.859Z,89.05
2019-01-18T12:20:32.685Z,91.56
2019-01-18T12:21:37.135Z,89.67
2019-01-18T12:22:32.702Z,89.24
2019-01-18T12:23:32.740Z,91.09
2019-01-18T12:24:32.718Z,87.95
2019-01-18T12:25:32.728Z,88.24
2019-01-18T12:26:32.735Z,89.71
2019-01-18T12:27:32.743Z,89.47
2019-01-18T12:28:32.773Z,89.04
2019-01-18T12:29:32.754Z,89.23
2019-01-18T12:30:32.796Z,87.86
2019-01-18T12:31:32.769Z,88.90
2019-01-18T12:32:32.774Z,88.71
2019-01-18T12:33:32.781Z,90.23
2019-01-18T12:34:32.819Z,89.53
2019-01-18T12:35:32.800Z,91.04
2019-01-18T12:36:32.800Z,90.76
2019-01-18T12:37:32.838Z,91.19
2019-01-18T12:38:32.826Z,89.57
2019-01-18T12:39:32.956Z,89.67
2019-01-18T12:40:32.859Z,88.39
2019-01-18T12:41:32.837Z,89.38
2019-01-18T12:42:32.844Z,89.09
2019-01-18T12:43:33.517Z,88.62
2019-01-18T12:44:32.858Z,88.81
2019-01-18T12:45:32.901Z,89.86
2019-01-18T12:46:32.873Z,89.09
2019-01-18T12:47:32.876Z,85.39
2019-01-18T12:48:32.883Z,86.72
2019-01-18T12:49:32.888Z,86.82
2019-01-18T12:50:32.923Z,88.81
2019-01-18T12:51:32.904Z,88.15
2019-01-18T12:52:32.907Z,87.76